Justice — WDG2184 — position and weather

sailwx.info

Track history (hours):
 
Tides and Currents Weather Stations Pressure Air Temp Water Temp Dewpoint Dewpoint Depression Visibility Wind Speed Wind Dir Waves Ship Positions

Justice

Owner: Boston Towing & Transportation, Boston, MA. More information available from US FCC via Universal Licensing System and Coast Guard Vessel Documentation Center.

Last reported at 2016-Sep-30 02:33 UTC. Time now 2016-Sep-30 03:13 UTC.
Position N 42°23' W 071°03'.

Length 30 m; draft 5.8 m.

Type: Tug. MMSI: 367513010.

Date/timePositionNaut miles runAvg speedWind from/ knotsBaromVisibWave heightAir tempDewpointWater temp
2016-Sep-30 02:33N 42°23' W 071°03'1 0.2
2016-Sep-29 23:33N 42°22' W 071°03'0 0.2
2016-Sep-29 21:33N 42°23' W 071°03'0 0.3
2016-Sep-29 20:33N 42°23' W 071°03'0 0.0
2016-Sep-29 19:33N 42°23' W 071°03'2 0.5
2016-Sep-29 16:33N 42°21' W 071°02'3 2.6
2016-Sep-29 15:32N 42°24' W 071°01'2 1.7
2016-Sep-29 14:33N 42°23' W 071°03'3 2.6
2016-Sep-29 13:33N 42°21' W 071°01'3 0.5
2016-Sep-29 08:31N 42°23' W 071°03'0 0.0
2016-Sep-29 07:29N 42°23' W 071°03'0 0.0
2016-Sep-29 00:33N 42°23' W 071°03'1 0.3
2016-Sep-28 21:34N 42°23' W 071°02'1 0.3
2016-Sep-28 19:33N 42°23' W 071°02'0 0.1
2016-Sep-28 16:33N 42°23' W 071°03'0 0.0
2016-Sep-28 15:33N 42°23' W 071°03'0 0.0
2016-Sep-28 12:33N 42°23' W 071°03'2 0.4
2016-Sep-28 08:33N 42°24' W 071°01'2 0.3
2016-Sep-28 03:33N 42°23' W 071°03'0 0.0
2016-Sep-28 02:33N 42°23' W 071°03'0 0.1
2016-Sep-28 01:33N 42°23' W 071°03'2 0.9
2016-Sep-27 23:33N 42°24' W 071°01'4 1.0
2016-Sep-27 19:33N 42°20' W 070°58'4 0.8
2016-Sep-27 14:33N 42°23' W 071°03'0 0.0
2016-Sep-27 13:33N 42°23' W 071°03'0 0.0
2016-Sep-27 10:33N 42°23' W 071°03'0 0.0
2016-Sep-27 00:33N 42°23' W 071°03'2 0.6
2016-Sep-26 20:33N 42°21' W 071°01'2 2.5
2016-Sep-26 19:33N 42°23' W 071°03'0 0.0
2016-Sep-26 15:33N 42°23' W 071°03'0 0.0
2016-Sep-26 13:33N 42°23' W 071°03'0 0.0
2016-Sep-26 11:33N 42°23' W 071°03'2 0.7
2016-Sep-26 08:33N 42°21' W 071°01'2 0.4
2016-Sep-26 02:33N 42°23' W 071°02'1 0.8
2016-Sep-26 01:33N 42°23' W 071°03'0 0.0
2016-Sep-26 00:33N 42°23' W 071°03'0 0.0
2016-Sep-25 21:33N 42°23' W 071°03'0 0.0
2016-Sep-25 17:33N 42°23' W 071°03'0 0.0
2016-Sep-25 16:33N 42°23' W 071°03'0 0.0
2016-Sep-25 15:33N 42°23' W 071°03'0 0.0
2016-Sep-25 14:33N 42°23' W 071°03'0 0.0
2016-Sep-25 12:33N 42°23' W 071°03'0 0.0
2016-Sep-25 11:33N 42°23' W 071°03'0 0.0
2016-Sep-25 10:33N 42°23' W 071°03'3 2.5
2016-Sep-25 09:33N 42°21' W 071°01'3 1.3
2016-Sep-25 07:33N 42°23' W 071°02'1 0.4
2016-Sep-25 04:33N 42°23' W 071°03'1 0.2
2016-Sep-25 00:33N 42°23' W 071°03'3 1.3
2016-Sep-24 22:34N 42°21' W 071°01'3 2.5
2016-Sep-24 21:33N 42°23' W 071°03'0 0.0
2016-Sep-24 19:33N 42°23' W 071°03'0 0.0
2016-Sep-24 18:33N 42°23' W 071°03'0 0.0
2016-Sep-24 17:33N 42°23' W 071°03'0 0.1
2016-Sep-24 16:33N 42°23' W 071°03'0 0.2
2016-Sep-24 14:34N 42°23' W 071°02'1 0.3
2016-Sep-24 12:33N 42°23' W 071°03'9 4.3
2016-Sep-24 10:33N 42°15' W 070°58'5 5.1
2016-Sep-24 09:33N 42°20' W 070°58'5 0.8
2016-Sep-24 03:33N 42°23' W 071°03'0 0.0
2016-Sep-24 02:33N 42°23' W 071°03'0 0.0
2016-Sep-24 01:33N 42°23' W 071°03'0 0.0
2016-Sep-24 00:33N 42°23' W 071°03'0 0.0
2016-Sep-23 19:33N 42°23' W 071°03'1 0.4
2016-Sep-23 17:33N 42°23' W 071°01'0 0.2
2016-Sep-23 16:33N 42°23' W 071°02'1 0.6
2016-Sep-23 15:29N 42°23' W 071°03'0 0.0
2016-Sep-23 13:33N 42°23' W 071°03'0 0.0
2016-Sep-23 09:33N 42°23' W 071°03'0 0.0
2016-Sep-23 06:33N 42°23' W 071°03'2 0.9
2016-Sep-23 04:33N 42°24' W 071°01'1 1.1
2016-Sep-23 03:33N 42°23' W 071°02'1 0.6
2016-Sep-23 02:33N 42°23' W 071°03'0 0.0
2016-Sep-23 01:33N 42°23' W 071°03'0 0.0
2016-Sep-23 00:33N 42°23' W 071°03'4 4.4
2016-Sep-22 23:33N 42°20' W 070°58'3 1.1
2016-Sep-22 20:33N 42°17' W 070°56'8 1.0
2016-Sep-22 12:33N 42°23' W 071°03'1 0.1
2016-Sep-22 04:33N 42°23' W 071°04'1 0.8
2016-Sep-22 03:33N 42°23' W 071°03'0 0.0
2016-Sep-22 00:33N 42°23' W 071°03'0 0.0
2016-Sep-21 23:33N 42°23' W 071°03'0 0.0
2016-Sep-21 22:33N 42°23' W 071°03'0 0.0
2016-Sep-21 19:33N 42°23' W 071°03'1 0.3
2016-Sep-21 16:34N 42°23' W 071°01'1 0.1
2016-Sep-21 09:33N 42°23' W 071°03'0 0.0
2016-Sep-21 08:33N 42°23' W 071°03'0 0.0
2016-Sep-21 05:34N 42°23' W 071°03'0 0.1
2016-Sep-21 03:33N 42°23' W 071°03'0 0.0
2016-Sep-21 02:33N 42°23' W 071°03'0 0.0
2016-Sep-20 17:33N 42°23' W 071°03'0 0.0
2016-Sep-20 14:33N 42°23' W 071°03'0 0.0
2016-Sep-20 13:33N 42°23' W 071°03'0 0.0
2016-Sep-20 10:33N 42°23' W 071°03'2 0.9
2016-Sep-20 08:33N 42°24' W 071°01'2 1.7
2016-Sep-20 07:33N 42°23' W 071°03'0 0.0
2016-Sep-20 06:33N 42°23' W 071°03'  
Track history (hours):
 
Tides and Currents Weather Stations Pressure Air Temp Water Temp Dewpoint Dewpoint Depression Visibility Wind Speed Wind Dir Waves Ship Positions

Justice

Owner: Boston Towing & Transportation, Boston, MA. More information available from US FCC via Universal Licensing System and Coast Guard Vessel Documentation Center.

Last reported at 2016-Sep-30 02:33 UTC. Time now 2016-Sep-30 03:13 UTC.
Position N 42°23' W 071°03'.

Length 30 m; draft 5.8 m.

Type: Tug. MMSI: 367513010.

Date/timePositionNaut miles runAvg speedWind from/ knotsBaromVisibWave heightAir tempDewpointWater temp
2016-Sep-30 02:33N 42°23' W 071°03'1 0.2
2016-Sep-29 23:33N 42°22' W 071°03'0 0.2
2016-Sep-29 21:33N 42°23' W 071°03'0 0.3
2016-Sep-29 20:33N 42°23' W 071°03'0 0.0
2016-Sep-29 19:33N 42°23' W 071°03'2 0.5
2016-Sep-29 16:33N 42°21' W 071°02'3 2.6
2016-Sep-29 15:32N 42°24' W 071°01'2 1.7
2016-Sep-29 14:33N 42°23' W 071°03'3 2.6
2016-Sep-29 13:33N 42°21' W 071°01'3 0.5
2016-Sep-29 08:31N 42°23' W 071°03'0 0.0
2016-Sep-29 07:29N 42°23' W 071°03'0 0.0
2016-Sep-29 00:33N 42°23' W 071°03'1 0.3
2016-Sep-28 21:34N 42°23' W 071°02'1 0.3
2016-Sep-28 19:33N 42°23' W 071°02'0 0.1
2016-Sep-28 16:33N 42°23' W 071°03'0 0.0
2016-Sep-28 15:33N 42°23' W 071°03'0 0.0
2016-Sep-28 12:33N 42°23' W 071°03'2 0.4
2016-Sep-28 08:33N 42°24' W 071°01'2 0.3
2016-Sep-28 03:33N 42°23' W 071°03'0 0.0
2016-Sep-28 02:33N 42°23' W 071°03'0 0.1
2016-Sep-28 01:33N 42°23' W 071°03'2 0.9
2016-Sep-27 23:33N 42°24' W 071°01'4 1.0
2016-Sep-27 19:33N 42°20' W 070°58'4 0.8
2016-Sep-27 14:33N 42°23' W 071°03'0 0.0
2016-Sep-27 13:33N 42°23' W 071°03'0 0.0
2016-Sep-27 10:33N 42°23' W 071°03'0 0.0
2016-Sep-27 00:33N 42°23' W 071°03'2 0.6
2016-Sep-26 20:33N 42°21' W 071°01'2 2.5
2016-Sep-26 19:33N 42°23' W 071°03'0 0.0
2016-Sep-26 15:33N 42°23' W 071°03'0 0.0
2016-Sep-26 13:33N 42°23' W 071°03'0 0.0
2016-Sep-26 11:33N 42°23' W 071°03'2 0.7
2016-Sep-26 08:33N 42°21' W 071°01'2 0.4
2016-Sep-26 02:33N 42°23' W 071°02'1 0.8
2016-Sep-26 01:33N 42°23' W 071°03'0 0.0
2016-Sep-26 00:33N 42°23' W 071°03'0 0.0
2016-Sep-25 21:33N 42°23' W 071°03'0 0.0
2016-Sep-25 17:33N 42°23' W 071°03'0 0.0
2016-Sep-25 16:33N 42°23' W 071°03'0 0.0
2016-Sep-25 15:33N 42°23' W 071°03'0 0.0
2016-Sep-25 14:33N 42°23' W 071°03'0 0.0
2016-Sep-25 12:33N 42°23' W 071°03'0 0.0
2016-Sep-25 11:33N 42°23' W 071°03'0 0.0
2016-Sep-25 10:33N 42°23' W 071°03'3 2.5
2016-Sep-25 09:33N 42°21' W 071°01'3 1.3
2016-Sep-25 07:33N 42°23' W 071°02'1 0.4
2016-Sep-25 04:33N 42°23' W 071°03'1 0.2
2016-Sep-25 00:33N 42°23' W 071°03'3 1.3
2016-Sep-24 22:34N 42°21' W 071°01'3 2.5
2016-Sep-24 21:33N 42°23' W 071°03'0 0.0
2016-Sep-24 19:33N 42°23' W 071°03'0 0.0
2016-Sep-24 18:33N 42°23' W 071°03'0 0.0
2016-Sep-24 17:33N 42°23' W 071°03'0 0.1
2016-Sep-24 16:33N 42°23' W 071°03'0 0.2
2016-Sep-24 14:34N 42°23' W 071°02'1 0.3
2016-Sep-24 12:33N 42°23' W 071°03'9 4.3
2016-Sep-24 10:33N 42°15' W 070°58'5 5.1
2016-Sep-24 09:33N 42°20' W 070°58'5 0.8
2016-Sep-24 03:33N 42°23' W 071°03'0 0.0
2016-Sep-24 02:33N 42°23' W 071°03'0 0.0
2016-Sep-24 01:33N 42°23' W 071°03'0 0.0
2016-Sep-24 00:33N 42°23' W 071°03'0 0.0
2016-Sep-23 19:33N 42°23' W 071°03'1 0.4
2016-Sep-23 17:33N 42°23' W 071°01'0 0.2
2016-Sep-23 16:33N 42°23' W 071°02'1 0.6
2016-Sep-23 15:29N 42°23' W 071°03'0 0.0
2016-Sep-23 13:33N 42°23' W 071°03'0 0.0
2016-Sep-23 09:33N 42°23' W 071°03'0 0.0
2016-Sep-23 06:33N 42°23' W 071°03'2 0.9
2016-Sep-23 04:33N 42°24' W 071°01'1 1.1
2016-Sep-23 03:33N 42°23' W 071°02'1 0.6
2016-Sep-23 02:33N 42°23' W 071°03'0 0.0
2016-Sep-23 01:33N 42°23' W 071°03'0 0.0
2016-Sep-23 00:33N 42°23' W 071°03'4 4.4
2016-Sep-22 23:33N 42°20' W 070°58'3 1.1
2016-Sep-22 20:33N 42°17' W 070°56'8 1.0
2016-Sep-22 12:33N 42°23' W 071°03'1 0.1
2016-Sep-22 04:33N 42°23' W 071°04'1 0.8
2016-Sep-22 03:33N 42°23' W 071°03'0 0.0
2016-Sep-22 00:33N 42°23' W 071°03'0 0.0
2016-Sep-21 23:33N 42°23' W 071°03'0 0.0
2016-Sep-21 22:33N 42°23' W 071°03'0 0.0
2016-Sep-21 19:33N 42°23' W 071°03'1 0.3
2016-Sep-21 16:34N 42°23' W 071°01'1 0.1
2016-Sep-21 09:33N 42°23' W 071°03'0 0.0
2016-Sep-21 08:33N 42°23' W 071°03'0 0.0
2016-Sep-21 05:34N 42°23' W 071°03'0 0.1
2016-Sep-21 03:33N 42°23' W 071°03'0 0.0
2016-Sep-21 02:33N 42°23' W 071°03'0 0.0
2016-Sep-20 17:33N 42°23' W 071°03'0 0.0
2016-Sep-20 14:33N 42°23' W 071°03'0 0.0
2016-Sep-20 13:33N 42°23' W 071°03'0 0.0
2016-Sep-20 10:33N 42°23' W 071°03'2 0.9
2016-Sep-20 08:33N 42°24' W 071°01'2 1.7
2016-Sep-20 07:33N 42°23' W 071°03'0 0.0
2016-Sep-20 06:33N 42°23' W 071°03'  

Dump ship's entire track history